createdAt,value
2022-10-19T00:05:18.751Z,12.21
2022-10-19T00:15:19.090Z,11.89
2022-10-19T00:25:19.132Z,11.89
2022-10-19T00:35:19.431Z,12.06
2022-10-19T00:45:19.470Z,11.06
2022-10-19T00:55:19.774Z,10.90
2022-10-19T01:05:19.807Z,10.90
2022-10-19T01:15:20.137Z,10.90
2022-10-19T01:25:20.163Z,11.06
2022-10-19T01:35:20.481Z,11.06
2022-10-19T01:45:20.522Z,10.90
2022-10-19T01:55:20.838Z,11.06
2022-10-19T02:05:20.870Z,10.90
2022-10-19T02:15:21.169Z,11.22
2022-10-19T02:25:21.346Z,11.22
2022-10-19T02:35:21.424Z,10.23
2022-10-19T02:45:21.459Z,10.23
2022-10-19T02:55:21.766Z,10.07
2022-10-19T03:05:21.805Z,10.39
2022-10-19T03:15:22.158Z,10.54
2022-10-19T03:25:22.194Z,10.70
2022-10-19T03:35:22.469Z,10.70
2022-10-19T03:45:22.513Z,10.54
2022-10-19T03:55:22.820Z,10.39
2022-10-19T04:05:22.846Z,10.54
2022-10-19T04:15:23.177Z,10.54
2022-10-19T04:25:23.195Z,10.39
2022-10-19T04:35:23.526Z,10.39
2022-10-19T04:45:23.549Z,10.39
2022-10-19T04:55:23.867Z,10.39
2022-10-19T05:05:23.882Z,10.23
2022-10-19T05:15:24.218Z,10.23
2022-10-19T05:25:24.252Z,9.08
2022-10-19T05:35:24.568Z,9.08
2022-10-19T05:45:24.589Z,9.24
2022-10-19T05:55:24.915Z,9.24
2022-10-19T06:05:24.935Z,9.55
2022-10-19T06:15:25.264Z,9.70
2022-10-19T06:25:25.293Z,9.70
2022-10-19T06:35:25.620Z,10.85
2022-10-19T06:45:25.640Z,10.23
2022-10-19T06:55:25.963Z,10.90
2022-10-19T07:05:25.995Z,10.90
2022-10-19T07:15:26.314Z,10.74
2022-10-19T07:25:26.336Z,10.74
2022-10-19T07:35:26.664Z,11.56
2022-10-19T07:45:26.788Z,11.40
2022-10-19T07:55:26.913Z,11.87
2022-10-19T08:05:27.067Z,11.69
2022-10-19T08:15:27.180Z,12.32
2022-10-19T08:25:27.502Z,12.93
2022-10-19T08:35:27.624Z,12.55
2022-10-19T08:45:27.641Z,12.74
2022-10-19T08:55:27.965Z,12.94
2022-10-19T09:05:27.992Z,12.94
2022-10-19T09:15:28.329Z,13.70
2022-10-19T09:25:28.351Z,13.70
2022-10-19T09:35:28.665Z,13.09
2022-10-19T09:45:28.689Z,13.84
2022-10-19T09:55:29.019Z,14.05
2022-10-19T10:05:29.043Z,14.58
2022-10-19T10:15:29.357Z,14.58
2022-10-19T10:25:29.375Z,14.36
2022-10-19T10:35:29.718Z,14.87
2022-10-19T10:45:29.734Z,14.87
2022-10-19T10:55:30.068Z,14.17
2022-10-19T11:05:30.095Z,14.40
2022-10-19T11:25:30.582Z,15.59
2022-10-19T11:35:30.867Z,15.35
2022-10-19T11:45:30.900Z,15.35
2022-10-19T11:55:31.233Z,15.35
2022-10-19T12:05:31.260Z,15.82
2022-10-19T12:15:31.565Z,15.57
2022-10-19T12:25:31.594Z,15.12
2022-10-19T12:35:31.915Z,15.57
2022-10-19T12:45:31.948Z,15.35
2022-10-19T12:55:32.274Z,16.30
2022-10-19T13:05:32.307Z,16.06
2022-10-19T13:15:32.623Z,15.82
2022-10-19T13:25:32.661Z,16.06
2022-10-19T13:35:32.964Z,16.06
2022-10-19T13:45:32.986Z,16.06
2022-10-19T13:55:33.312Z,16.06
2022-10-19T14:05:33.362Z,15.59
2022-10-19T14:15:33.677Z,15.59
2022-10-19T14:25:33.686Z,15.32
2022-10-19T14:35:33.905Z,15.76
2022-10-19T14:45:33.940Z,15.43
2022-10-19T14:55:34.278Z,15.43
2022-10-19T15:05:34.306Z,15.84
2022-10-19T15:15:34.608Z,15.64
2022-10-19T15:25:34.708Z,15.84
2022-10-19T15:35:34.859Z,15.07
2022-10-19T15:45:34.888Z,15.27
2022-10-19T15:55:35.210Z,15.47
2022-10-19T16:05:35.248Z,15.47
2022-10-19T16:15:35.731Z,15.47
2022-10-19T16:25:35.670Z,14.69
2022-10-19T16:35:35.833Z,15.07
2022-10-19T16:45:35.863Z,15.07
2022-10-19T16:55:36.380Z,15.07
2022-10-19T17:05:36.532Z,14.27
2022-10-19T17:15:42.838Z,14.27
2022-10-19T17:25:39.655Z,14.46
2022-10-19T17:35:37.153Z,14.64
2022-10-19T17:45:37.197Z,14.82
2022-10-19T17:55:37.471Z,13.84
2022-10-19T18:05:37.961Z,13.84
2022-10-19T18:15:37.654Z,13.84
2022-10-19T18:25:53.541Z,14.01
2022-10-19T18:35:38.559Z,13.84
2022-10-19T18:45:38.111Z,13.66
2022-10-19T18:55:38.259Z,13.84
2022-10-19T19:05:38.886Z,13.03
2022-10-19T19:15:38.861Z,13.20
2022-10-19T19:25:38.934Z,13.20
2022-10-19T19:35:40.579Z,13.54
2022-10-19T19:45:39.105Z,13.37
2022-10-19T19:55:39.471Z,13.37
2022-10-19T20:05:39.706Z,13.37
2022-10-19T20:15:39.836Z,12.38
2022-10-19T20:25:40.019Z,12.72
2022-10-19T20:35:40.063Z,12.72
2022-10-19T20:45:40.238Z,12.72
2022-10-19T20:55:40.304Z,12.55
2022-10-19T21:05:41.014Z,12.72
2022-10-19T21:15:40.796Z,12.72
2022-10-19T21:25:40.872Z,12.88
2022-10-19T21:35:41.016Z,11.89
2022-10-19T21:45:41.122Z,12.88
2022-10-19T21:55:41.146Z,12.88
2022-10-19T22:05:41.380Z,11.89
2022-10-19T22:15:41.599Z,11.89
2022-10-19T22:25:41.936Z,11.89
2022-10-19T22:35:41.967Z,11.89
2022-10-19T22:45:42.287Z,12.06
2022-10-19T22:55:42.389Z,12.06
2022-10-19T23:05:42.538Z,11.89
2022-10-19T23:15:43.981Z,11.89
2022-10-19T23:25:42.852Z,12.06
2022-10-19T23:35:42.880Z,12.06
2022-10-19T23:45:43.131Z,11.89
2022-10-19T23:55:43.352Z,11.22
